sensor_id;sensor_type;location;lat;lon;timestamp;pressure;altitude;pressure_sealevel;temperature;humidity
43681;BME280;29281;50.356;30.894;2022-07-22T00:00:18;99760.39;;;19.54;100.00
43681;BME280;29281;50.356;30.894;2022-07-22T00:01:25;99763.08;;;19.54;100.00
43681;BME280;29281;50.356;30.894;2022-07-22T00:02:28;99758.17;;;19.57;100.00
43681;BME280;29281;50.356;30.894;2022-07-22T00:03:33;99759.55;;;19.53;100.00
43681;BME280;29281;50.356;30.894;2022-07-22T00:04:37;99759.18;;;19.48;100.00
43681;BME280;29281;50.356;30.894;2022-07-22T00:05:43;99762.55;;;19.42;100.00
43681;BME280;29281;50.356;30.894;2022-07-22T00:06:47;99765.41;;;19.41;100.00
43681;BME280;29281;50.356;30.894;2022-07-22T00:07:53;99760.02;;;19.41;100.00
43681;BME280;29281;50.356;30.894;2022-07-22T00:09:00;99759.55;;;19.53;100.00
43681;BME280;29281;50.356;30.894;2022-07-22T00:10:12;99761.73;;;19.50;100.00
43681;BME280;29281;50.356;30.894;2022-07-22T00:11:17;99765.23;;;19.42;100.00
43681;BME280;29281;50.356;30.894;2022-07-22T00:12:22;99768.12;;;19.32;100.00
43681;BME280;29281;50.356;30.894;2022-07-22T00:13:26;99767.26;;;19.40;100.00
43681;BME280;29281;50.356;30.894;2022-07-22T00:14:30;99771.63;;;19.41;100.00
43681;BME280;29281;50.356;30.894;2022-07-22T00:15:38;99768.94;;;19.41;100.00
43681;BME280;29281;50.356;30.894;2022-07-22T00:16:42;99771.13;;;19.46;100.00
43681;BME280;29281;50.356;30.894;2022-07-22T00:17:46;99776.70;;;19.28;100.00
43681;BME280;29281;50.356;30.894;2022-07-22T00:18:51;99778.73;;;19.34;100.00
43681;BME280;29281;50.356;30.894;2022-07-22T00:19:56;99773.69;;;19.39;100.00
43681;BME280;29281;50.356;30.894;2022-07-22T00:21:02;99779.73;;;19.33;100.00
43681;BME280;29281;50.356;30.894;2022-07-22T00:22:08;99778.25;;;19.22;100.00
43681;BME280;29281;50.356;30.894;2022-07-22T00:23:12;99772.16;;;19.28;100.00
43681;BME280;29281;50.356;30.894;2022-07-22T00:24:16;99782.10;;;19.12;100.00
43681;BME280;29281;50.356;30.894;2022-07-22T00:25:20;99792.53;;;19.15;100.00
43681;BME280;29281;50.356;30.894;2022-07-22T00:26:25;99772.36;;;19.03;100.00
43681;BME280;29281;50.356;30.894;2022-07-22T00:27:29;99774.87;;;19.12;100.00
43681;BME280;29281;50.356;30.894;2022-07-22T00:28:33;99774.87;;;19.12;100.00
43681;BME280;29281;50.356;30.894;2022-07-22T00:29:39;99768.81;;;19.10;100.00
43681;BME280;29281;50.356;30.894;2022-07-22T00:30:42;99774.55;;;19.07;100.00
43681;BME280;29281;50.356;30.894;2022-07-22T00:31:49;99770.49;;;19.11;100.00
43681;BME280;29281;50.356;30.894;2022-07-22T00:32:53;99767.30;;;19.16;100.00
43681;BME280;29281;50.356;30.894;2022-07-22T00:34:01;99767.14;;;19.17;100.00
43681;BME280;29281;50.356;30.894;2022-07-22T00:35:05;99774.19;;;19.10;100.00
43681;BME280;29281;50.356;30.894;2022-07-22T00:36:10;99779.77;;;19.09;100.00
43681;BME280;29281;50.356;30.894;2022-07-22T00:37:14;99784.11;;;19.10;100.00
43681;BME280;29281;50.356;30.894;2022-07-22T00:38:17;99779.24;;;19.13;100.00
43681;BME280;29281;50.356;30.894;2022-07-22T00:39:22;99766.96;;;19.11;100.00
43681;BME280;29281;50.356;30.894;2022-07-22T00:40:28;99779.41;;;19.12;100.00
43681;BME280;29281;50.356;30.894;2022-07-22T00:41:32;99770.84;;;19.16;100.00
43681;BME280;29281;50.356;30.894;2022-07-22T00:42:42;99775.05;;;19.19;100.00
43681;BME280;29281;50.356;30.894;2022-07-22T00:44:03;99772.52;;;19.17;100.00
43681;BME280;29281;50.356;30.894;2022-07-22T00:45:20;99770.34;;;19.05;100.00
43681;BME280;29281;50.356;30.894;2022-07-22T00:46:24;99780.27;;;19.04;100.00
43681;BME280;29281;50.356;30.894;2022-07-22T00:47:29;99769.83;;;19.01;100.00
43681;BME280;29281;50.356;30.894;2022-07-22T00:48:33;99774.54;;;18.99;100.00
43681;BME280;29281;50.356;30.894;2022-07-22T00:49:38;99776.05;;;19.10;100.00
43681;BME280;29281;50.356;30.894;2022-07-22T00:50:42;99774.87;;;19.12;100.00
43681;BME280;29281;50.356;30.894;2022-07-22T00:51:49;99773.20;;;19.03;100.00
43681;BME280;29281;50.356;30.894;2022-07-22T00:52:53;99781.09;;;18.96;100.00
43681;BME280;29281;50.356;30.894;2022-07-22T00:53:57;99778.59;;;19.03;100.00
43681;BME280;29281;50.356;30.894;2022-07-22T00:55:04;99774.03;;;19.12;100.00
43681;BME280;29281;50.356;30.894;2022-07-22T00:56:07;99773.19;;;19.11;100.00
43681;BME280;29281;50.356;30.894;2022-07-22T00:57:13;99777.23;;;18.99;100.00
43681;BME280;29281;50.356;30.894;2022-07-22T00:58:19;99775.38;;;19.00;100.00
43681;BME280;29281;50.356;30.894;2022-07-22T00:59:26;99774.86;;;18.80;100.00
43681;BME280;29281;50.356;30.894;2022-07-22T01:00:31;99783.61;;;18.82;100.00
43681;BME280;29281;50.356;30.894;2022-07-22T01:01:35;99783.12;;;18.86;100.00
43681;BME280;29281;50.356;30.894;2022-07-22T01:02:39;99768.14;;;18.84;100.00
43681;BME280;29281;50.356;30.894;2022-07-22T01:03:42;99775.56;;;18.90;100.00
43681;BME280;29281;50.356;30.894;2022-07-22T01:04:52;99777.72;;;18.94;100.00
43681;BME280;29281;50.356;30.894;2022-07-22T01:05:56;99773.53;;;19.00;100.00
43681;BME280;29281;50.356;30.894;2022-07-22T01:07:02;99778.93;;;19.08;100.00
43681;BME280;29281;50.356;30.894;2022-07-22T01:08:09;99777.72;;;19.11;100.00
43681;BME280;29281;50.356;30.894;2022-07-22T01:09:13;99784.12;;;19.18;100.00
43681;BME280;29281;50.356;30.894;2022-07-22T01:10:18;99784.46;;;19.15;100.00
43681;BME280;29281;50.356;30.894;2022-07-22T01:11:22;99790.87;;;19.06;100.00
43681;BME280;29281;50.356;30.894;2022-07-22T01:12:26;99787.17;;;19.07;100.00
43681;BME280;29281;50.356;30.894;2022-07-22T01:13:33;99784.11;;;19.10;100.00
43681;BME280;29281;50.356;30.894;2022-07-22T01:14:40;99786.83;;;19.02;100.00
43681;BME280;29281;50.356;30.894;2022-07-22T01:15:44;99779.25;;;18.89;100.00
43681;BME280;29281;50.356;30.894;2022-07-22T01:16:48;99782.63;;;18.91;100.00
43681;BME280;29281;50.356;30.894;2022-07-22T01:17:52;99787.16;;;18.98;100.00
43681;BME280;29281;50.356;30.894;2022-07-22T01:18:54;99783.78;;;18.96;100.00
43681;BME280;29281;50.356;30.894;2022-07-22T01:20:05;99777.92;;;18.93;100.00
43681;BME280;29281;50.356;30.894;2022-07-22T01:21:16;99784.64;;;18.89;100.00
43681;BME280;29281;50.356;30.894;2022-07-22T01:22:21;99787.84;;;18.92;100.00
43681;BME280;29281;50.356;30.894;2022-07-22T01:23:25;99786.83;;;19.02;100.00
43681;BME280;29281;50.356;30.894;2022-07-22T01:24:28;99784.12;;;19.02;100.00
43681;BME280;29281;50.356;30.894;2022-07-22T01:25:32;99784.31;;;19.08;100.00
43681;BME280;29281;50.356;30.894;2022-07-22T01:26:53;99784.81;;;19.04;100.00
43681;BME280;29281;50.356;30.894;2022-07-22T01:27:56;99783.47;;;19.08;100.00
43681;BME280;29281;50.356;30.894;2022-07-22T01:29:03;99787.00;;;19.08;100.00
43681;BME280;29281;50.356;30.894;2022-07-22T01:30:10;99778.42;;;19.05;100.00
43681;BME280;29281;50.356;30.894;2022-07-22T01:31:16;99776.73;;;19.04;100.00
43681;BME280;29281;50.356;30.894;2022-07-22T01:32:21;99781.27;;;19.03;100.00
43681;BME280;29281;50.356;30.894;2022-07-22T01:33:25;99780.25;;;18.96;100.00
43681;BME280;29281;50.356;30.894;2022-07-22T01:34:28;99780.09;;;18.97;100.00
43681;BME280;29281;50.356;30.894;2022-07-22T01:35:32;99780.25;;;18.96;100.00
43681;BME280;29281;50.356;30.894;2022-07-22T01:36:39;99781.95;;;19.05;100.00
43681;BME280;29281;50.356;30.894;2022-07-22T01:37:43;99791.02;;;19.12;100.00
43681;BME280;29281;50.356;30.894;2022-07-22T01:38:47;99779.59;;;19.02;100.00
43681;BME280;29281;50.356;30.894;2022-07-22T01:39:51;99781.61;;;19.00;100.00
43681;BME280;29281;50.356;30.894;2022-07-22T01:40:54;99785.14;;;19.01;100.00
43681;BME280;29281;50.356;30.894;2022-07-22T01:42:02;99782.61;;;18.99;100.00
43681;BME280;29281;50.356;30.894;2022-07-22T01:43:07;99784.30;;;19.00;100.00
43681;BME280;29281;50.356;30.894;2022-07-22T01:44:12;99782.46;;;18.92;100.00
43681;BME280;29281;50.356;30.894;2022-07-22T01:45:16;99781.45;;;18.93;100.00
43681;BME280;29281;50.356;30.894;2022-07-22T01:46:21;99783.63;;;18.90;100.00
43681;BME280;29281;50.356;30.894;2022-07-22T01:47:26;99791.70;;;18.90;100.00
43681;BME280;29281;50.356;30.894;2022-07-22T01:48:33;99778.77;;;18.93;100.00
43681;BME280;29281;50.356;30.894;2022-07-22T01:49:38;99785.64;;;18.88;100.00
43681;BME280;29281;50.356;30.894;2022-07-22T01:50:43;99792.88;;;18.87;100.00
43681;BME280;29281;50.356;30.894;2022-07-22T01:51:50;99790.70;;;18.91;100.00
43681;BME280;29281;50.356;30.894;2022-07-22T01:52:55;99784.46;;;18.98;100.00
43681;BME280;29281;50.356;30.894;2022-07-22T01:54:00;99786.81;;;18.85;100.00
43681;BME280;29281;50.356;30.894;2022-07-22T01:55:08;99784.78;;;18.79;100.00
43681;BME280;29281;50.356;30.894;2022-07-22T01:56:14;99784.80;;;18.87;100.00
43681;BME280;29281;50.356;30.894;2022-07-22T01:57:20;99787.81;;;18.84;100.00
43681;BME280;29281;50.356;30.894;2022-07-22T01:58:28;99777.41;;;18.89;100.00
43681;BME280;29281;50.356;30.894;2022-07-22T01:59:35;99787.84;;;18.92;100.00
43681;BME280;29281;50.356;30.894;2022-07-22T02:00:40;99791.86;;;18.96;100.00
43681;BME280;29281;50.356;30.894;2022-07-22T02:01:44;99784.30;;;19.00;100.00
43681;BME280;29281;50.356;30.894;2022-07-22T02:02:47;99792.53;;;18.98;100.00
43681;BME280;29281;50.356;30.894;2022-07-22T02:03:50;99788.00;;;18.99;100.00
43681;BME280;29281;50.356;30.894;2022-07-22T02:04:53;99784.46;;;18.98;100.00
43681;BME280;29281;50.356;30.894;2022-07-22T02:05:58;99783.12;;;19.03;100.00
43681;BME280;29281;50.356;30.894;2022-07-22T02:07:01;99784.64;;;19.05;100.00
43681;BME280;29281;50.356;30.894;2022-07-22T02:08:07;99787.33;;;18.89;100.00
43681;BME280;29281;50.356;30.894;2022-07-22T02:09:31;99794.06;;;18.93;100.00
43681;BME280;29281;50.356;30.894;2022-07-22T02:10:36;99788.84;;;19.00;100.00
43681;BME280;29281;50.356;30.894;2022-07-22T02:11:42;99790.87;;;19.06;99.65
43681;BME280;29281;50.356;30.894;2022-07-22T02:12:47;99795.92;;;19.09;100.00
43681;BME280;29281;50.356;30.894;2022-07-22T02:13:51;99792.88;;;19.04;99.67
43681;BME280;29281;50.356;30.894;2022-07-22T02:14:57;99803.81;;;19.02;100.00
43681;BME280;29281;50.356;30.894;2022-07-22T02:16:01;99795.73;;;19.02;99.67
43681;BME280;29281;50.356;30.894;2022-07-22T02:17:12;99800.77;;;18.97;100.00
43681;BME280;29281;50.356;30.894;2022-07-22T02:18:17;99799.94;;;18.88;100.00
43681;BME280;29281;50.356;30.894;2022-07-22T02:19:24;99807.33;;;18.94;100.00
43681;BME280;29281;50.356;30.894;2022-07-22T02:45:55;99803.96;;;18.84;100.00
43681;BME280;29281;50.356;30.894;2022-07-22T02:47:02;99806.84;;;18.91;100.00
43681;BME280;29281;50.356;30.894;2022-07-22T02:48:08;99805.97;;;18.82;100.00
43681;BME280;29281;50.356;30.894;2022-07-22T02:49:13;99806.79;;;18.67;100.00
43681;BME280;29281;50.356;30.894;2022-07-22T02:50:17;99812.36;;;18.73;100.00
43681;BME280;29281;50.356;30.894;2022-07-22T02:51:22;99807.17;;;18.88;100.00
43681;BME280;29281;50.356;30.894;2022-07-22T02:52:27;99813.22;;;18.98;100.00
43681;BME280;29281;50.356;30.894;2022-07-22T02:53:37;99804.64;;;19.11;99.40
43681;BME280;29281;50.356;30.894;2022-07-22T02:54:41;99813.22;;;18.98;99.50
43681;BME280;29281;50.356;30.894;2022-07-22T02:55:46;99811.53;;;18.97;100.00
43681;BME280;29281;50.356;30.894;2022-07-22T02:56:53;99809.01;;;18.95;100.00
43681;BME280;29281;50.356;30.894;2022-07-22T02:58:03;99809.70;;;19.06;99.65
43681;BME280;29281;50.356;30.894;2022-07-22T02:59:07;99806.34;;;19.20;98.79
43681;BME280;29281;50.356;30.894;2022-07-22T03:00:14;99804.48;;;19.20;98.28
43681;BME280;29281;50.356;30.894;2022-07-22T03:01:20;99812.73;;;19.19;98.95
43681;BME280;29281;50.356;30.894;2022-07-22T03:02:29;99815.26;;;19.20;98.24
43681;BME280;29281;50.356;30.894;2022-07-22T03:03:34;99820.30;;;19.15;98.82
43681;BME280;29281;50.356;30.894;2022-07-22T03:04:39;99815.59;;;19.17;99.08
43681;BME280;29281;50.356;30.894;2022-07-22T03:05:43;99818.12;;;19.19;98.76
43681;BME280;29281;50.356;30.894;2022-07-22T03:06:52;99817.63;;;19.23;98.79
43681;BME280;29281;50.356;30.894;2022-07-22T03:07:59;99820.81;;;19.51;97.48
43681;BME280;29281;50.356;30.894;2022-07-22T03:09:03;99814.48;;;19.91;94.88
43681;BME280;29281;50.356;30.894;2022-07-22T03:10:10;99818.91;;;19.84;94.27
43681;BME280;29281;50.356;30.894;2022-07-22T03:11:15;99822.06;;;19.88;94.02
43681;BME280;29281;50.356;30.894;2022-07-22T03:12:18;99821.95;;;20.20;92.41
43681;BME280;29281;50.356;30.894;2022-07-22T03:13:26;99825.94;;;19.93;93.46
43681;BME280;29281;50.356;30.894;2022-07-22T03:14:37;99818.52;;;20.43;91.24
43681;BME280;29281;50.356;30.894;2022-07-22T03:15:40;99819.91;;;20.92;87.71
43681;BME280;29281;50.356;30.894;2022-07-22T03:16:46;99818.63;;;20.80;87.85
43681;BME280;29281;50.356;30.894;2022-07-22T03:17:50;99822.27;;;20.64;88.48
43681;BME280;29281;50.356;30.894;2022-07-22T03:18:52;99822.95;;;20.27;90.76
43681;BME280;29281;50.356;30.894;2022-07-22T03:19:57;99829.75;;;20.15;92.03
43681;BME280;29281;50.356;30.894;2022-07-22T03:21:03;99821.00;;;20.05;92.72
43681;BME280;29281;50.356;30.894;2022-07-22T03:22:10;99822.31;;;19.70;95.43
43681;BME280;29281;50.356;30.894;2022-07-22T03:23:14;99824.63;;;19.73;95.92
43681;BME280;29281;50.356;30.894;2022-07-22T03:24:19;99834.53;;;19.89;95.44
43681;BME280;29281;50.356;30.894;2022-07-22T03:25:23;99836.38;;;19.96;94.55
43681;BME280;29281;50.356;30.894;2022-07-22T03:26:27;99832.34;;;19.92;94.86
43681;BME280;29281;50.356;30.894;2022-07-22T03:27:37;99831.56;;;19.68;96.09
43681;BME280;29281;50.356;30.894;2022-07-22T03:28:39;99836.08;;;19.75;96.06
43681;BME280;29281;50.356;30.894;2022-07-22T03:29:42;99823.63;;;19.74;96.48
43681;BME280;29281;50.356;30.894;2022-07-22T03:30:45;99830.99;;;19.88;95.43
43681;BME280;29281;50.356;30.894;2022-07-22T03:31:48;99829.51;;;19.86;95.29
43681;BME280;29281;50.356;30.894;2022-07-22T03:32:57;99831.56;;;19.68;96.80
43681;BME280;29281;50.356;30.894;2022-07-22T03:34:02;99835.38;;;19.89;95.91
43681;BME280;29281;50.356;30.894;2022-07-22T03:35:11;99836.20;;;19.98;95.50
43681;BME280;29281;50.356;30.894;2022-07-22T03:36:18;99835.88;;;19.93;95.68
43681;BME280;29281;50.356;30.894;2022-07-22T03:37:23;99834.82;;;20.02;95.29
43681;BME280;29281;50.356;30.894;2022-07-22T03:38:26;99839.02;;;20.13;94.51
43681;BME280;29281;50.356;30.894;2022-07-22T03:39:32;99835.70;;;19.94;94.99
43681;BME280;29281;50.356;30.894;2022-07-22T03:40:38;99831.84;;;19.89;94.92
43681;BME280;29281;50.356;30.894;2022-07-22T03:41:41;99834.90;;;19.86;95.75
43681;BME280;29281;50.356;30.894;2022-07-22T03:42:46;99838.91;;;19.90;96.40
43681;BME280;29281;50.356;30.894;2022-07-22T03:43:52;99844.33;;;19.82;96.23
43681;BME280;29281;50.356;30.894;2022-07-22T03:44:59;99839.11;;;19.72;97.03
43681;BME280;29281;50.356;30.894;2022-07-22T03:46:02;99844.36;;;19.65;97.81
43681;BME280;29281;50.356;30.894;2022-07-22T03:47:06;99845.54;;;19.63;98.71
43681;BME280;29281;50.356;30.894;2022-07-22T03:48:13;99850.09;;;19.62;97.94
43681;BME280;29281;50.356;30.894;2022-07-22T03:49:15;99841.52;;;19.51;98.96
43681;BME280;29281;50.356;30.894;2022-07-22T03:50:21;99840.68;;;19.50;98.83
43681;BME280;29281;50.356;30.894;2022-07-22T03:51:28;99837.94;;;19.75;97.65
43681;BME280;29281;50.356;30.894;2022-07-22T03:52:35;99842.31;;;19.84;96.69
43681;BME280;29281;50.356;30.894;2022-07-22T03:53:46;99841.09;;;19.86;96.78
43681;BME280;29281;50.356;30.894;2022-07-22T03:54:49;99841.44;;;19.91;96.78
43681;BME280;29281;50.356;30.894;2022-07-22T03:55:58;99836.55;;;19.95;96.23
43681;BME280;29281;50.356;30.894;2022-07-22T03:57:02;99835.53;;;19.96;96.61
43681;BME280;29281;50.356;30.894;2022-07-22T03:58:06;99830.86;;;19.82;96.90
43681;BME280;29281;50.356;30.894;2022-07-22T03:59:11;99832.13;;;20.02;96.48
43681;BME280;29281;50.356;30.894;2022-07-22T04:00:18;99831.33;;;20.32;94.02
43681;BME280;29281;50.356;30.894;2022-07-22T04:01:22;99827.72;;;20.56;92.67
43681;BME280;29281;50.356;30.894;2022-07-22T04:02:26;99834.04;;;20.41;92.65
43681;BME280;29281;50.356;30.894;2022-07-22T04:03:32;99830.33;;;20.42;92.59
43681;BME280;29281;50.356;30.894;2022-07-22T04:04:39;99834.48;;;20.52;92.01
43681;BME280;29281;50.356;30.894;2022-07-22T04:05:44;99836.56;;;20.42;91.79
43681;BME280;29281;50.356;30.894;2022-07-22T04:06:52;99841.77;;;20.35;92.82
43681;BME280;29281;50.356;30.894;2022-07-22T04:07:59;99838.78;;;20.30;93.17
43681;BME280;29281;50.356;30.894;2022-07-22T04:09:06;99830.76;;;20.14;94.17
43681;BME280;29281;50.356;30.894;2022-07-22T04:10:10;99833.17;;;20.01;94.59
43681;BME280;29281;50.356;30.894;2022-07-22T04:11:17;99824.20;;;20.09;94.86
43681;BME280;29281;50.356;30.894;2022-07-22T04:12:21;99832.73;;;20.20;93.79
43681;BME280;29281;50.356;30.894;2022-07-22T04:13:29;99829.03;;;20.21;93.50
43681;BME280;29281;50.356;30.894;2022-07-22T04:14:35;99825.28;;;20.39;93.36
43681;BME280;29281;50.356;30.894;2022-07-22T04:15:39;99831.16;;;20.34;93.25
43681;BME280;29281;50.356;30.894;2022-07-22T04:16:46;99833.72;;;20.66;91.82
43681;BME280;29281;50.356;30.894;2022-07-22T04:17:50;99831.30;;;21.02;89.13
43681;BME280;29281;50.356;30.894;2022-07-22T04:18:53;99825.16;;;21.08;88.12
43681;BME280;29281;50.356;30.894;2022-07-22T04:19:59;99833.97;;;20.80;90.10
43681;BME280;29281;50.356;30.894;2022-07-22T04:21:04;99834.39;;;20.68;91.47
43681;BME280;29281;50.356;30.894;2022-07-22T04:22:13;99832.29;;;20.79;90.69
43681;BME280;29281;50.356;30.894;2022-07-22T04:23:17;99832.49;;;21.00;89.73
43681;BME280;29281;50.356;30.894;2022-07-22T04:24:21;99837.53;;;21.03;89.16
43681;BME280;29281;50.356;30.894;2022-07-22T04:25:26;99835.19;;;21.00;89.17
43681;BME280;29281;50.356;30.894;2022-07-22T04:26:30;99848.34;;;21.03;88.97
43681;BME280;29281;50.356;30.894;2022-07-22T04:27:35;99843.36;;;20.92;88.79
43681;BME280;29281;50.356;30.894;2022-07-22T04:28:38;99846.94;;;20.84;89.31
43681;BME280;29281;50.356;30.894;2022-07-22T04:29:44;99846.13;;;21.06;88.64
43681;BME280;29281;50.356;30.894;2022-07-22T04:30:47;99841.08;;;21.03;87.95
43681;BME280;29281;50.356;30.894;2022-07-22T04:31:51;99842.98;;;21.40;86.65
43681;BME280;29281;50.356;30.894;2022-07-22T04:32:57;99849.42;;;21.92;83.75
43681;BME280;29281;50.356;30.894;2022-07-22T04:34:01;99843.66;;;23.32;76.18
43681;BME280;29281;50.356;30.894;2022-07-22T04:35:09;99845.56;;;25.50;66.27
43681;BME280;29281;50.356;30.894;2022-07-22T04:36:18;99852.16;;;27.97;56.96
43681;BME280;29281;50.356;30.894;2022-07-22T04:37:21;99856.78;;;29.18;52.52
43681;BME280;29281;50.356;30.894;2022-07-22T04:38:27;99874.43;;;30.34;48.38
43681;BME280;29281;50.356;30.894;2022-07-22T04:39:34;99874.23;;;31.32;45.35
43681;BME280;29281;50.356;30.894;2022-07-22T04:40:40;99876.48;;;31.35;44.93
43681;BME280;29281;50.356;30.894;2022-07-22T04:41:45;99886.27;;;32.48;42.88
43681;BME280;29281;50.356;30.894;2022-07-22T04:42:51;99889.34;;;33.49;40.55
43681;BME280;29281;50.356;30.894;2022-07-22T04:43:56;99898.44;;;33.50;39.58
43681;BME280;29281;50.356;30.894;2022-07-22T04:45:00;99894.28;;;33.47;39.77
43681;BME280;29281;50.356;30.894;2022-07-22T04:46:07;99900.59;;;34.07;37.95
43681;BME280;29281;50.356;30.894;2022-07-22T04:47:12;99910.94;;;33.90;37.92
43681;BME280;29281;50.356;30.894;2022-07-22T04:48:17;99912.66;;;33.69;38.51
43681;BME280;29281;50.356;30.894;2022-07-22T04:49:23;99903.63;;;34.10;37.93
43681;BME280;29281;50.356;30.894;2022-07-22T04:50:29;99903.67;;;34.15;37.69
43681;BME280;29281;50.356;30.894;2022-07-22T04:51:34;99912.09;;;33.99;38.01
43681;BME280;29281;50.356;30.894;2022-07-22T04:52:40;99916.77;;;34.82;36.37
43681;BME280;29281;50.356;30.894;2022-07-22T04:53:45;99919.50;;;34.77;36.04
43681;BME280;29281;50.356;30.894;2022-07-22T04:55:00;99915.20;;;33.75;37.26
43681;BME280;29281;50.356;30.894;2022-07-22T04:56:04;99918.02;;;34.17;37.13
43681;BME280;29281;50.356;30.894;2022-07-22T04:57:10;99907.62;;;32.63;38.79
43681;BME280;29281;50.356;30.894;2022-07-22T04:58:15;99907.62;;;32.63;38.79
43681;BME280;29281;50.356;30.894;2022-07-22T04:59:22;99907.26;;;32.98;38.75
43681;BME280;29281;50.356;30.894;2022-07-22T05:00:30;99906.94;;;32.95;39.64
43681;BME280;29281;50.356;30.894;2022-07-22T05:01:35;99908.27;;;31.31;42.24
43681;BME280;29281;50.356;30.894;2022-07-22T05:02:41;99900.30;;;32.13;40.92
43681;BME280;29281;50.356;30.894;2022-07-22T05:03:44;99911.92;;;32.98;39.55
43681;BME280;29281;50.356;30.894;2022-07-22T05:04:47;99912.45;;;33.22;38.53
43681;BME280;29281;50.356;30.894;2022-07-22T05:05:54;99914.59;;;34.00;37.82
43681;BME280;29281;50.356;30.894;2022-07-22T05:07:00;99918.57;;;34.62;36.96
43681;BME280;29281;50.356;30.894;2022-07-22T05:08:08;99919.61;;;33.44;37.78
43681;BME280;29281;50.356;30.894;2022-07-22T05:09:18;99930.27;;;33.68;37.10
43681;BME280;29281;50.356;30.894;2022-07-22T05:10:28;99927.08;;;34.13;36.35
43681;BME280;29281;50.356;30.894;2022-07-22T05:11:37;99924.84;;;34.10;36.65
43681;BME280;29281;50.356;30.894;2022-07-22T05:12:42;99924.63;;;33.52;37.05
43681;BME280;29281;50.356;30.894;2022-07-22T05:13:48;99914.78;;;33.08;37.40
43681;BME280;29281;50.356;30.894;2022-07-22T05:14:52;99909.03;;;32.88;38.19
43681;BME280;29281;50.356;30.894;2022-07-22T05:15:56;99916.82;;;34.03;36.46
43681;BME280;29281;50.356;30.894;2022-07-22T05:17:00;99921.36;;;34.24;35.97
43681;BME280;29281;50.356;30.894;2022-07-22T05:18:06;99929.29;;;35.20;34.56
43681;BME280;29281;50.356;30.894;2022-07-22T05:19:10;99941.30;;;35.82;33.51
43681;BME280;29281;50.356;30.894;2022-07-22T05:20:16;99939.30;;;35.37;33.78
43681;BME280;29281;50.356;30.894;2022-07-22T05:21:20;99937.98;;;33.98;35.43
43681;BME280;29281;50.356;30.894;2022-07-22T05:22:23;99923.33;;;33.33;37.24
43681;BME280;29281;50.356;30.894;2022-07-22T05:23:31;99929.44;;;33.67;36.69
43681;BME280;29281;50.356;30.894;2022-07-22T05:24:36;99919.59;;;34.08;36.04
43681;BME280;29281;50.356;30.894;2022-07-22T05:25:41;99934.75;;;34.95;34.91
43681;BME280;29281;50.356;30.894;2022-07-22T05:26:47;99940.42;;;35.51;34.06
43681;BME280;29281;50.356;30.894;2022-07-22T05:27:52;99934.66;;;36.13;33.33
43681;BME280;29281;50.356;30.894;2022-07-22T05:29:10;99941.86;;;35.84;33.63
43681;BME280;29281;50.356;30.894;2022-07-22T05:30:14;99944.45;;;36.85;32.18
43681;BME280;29281;50.356;30.894;2022-07-22T05:31:23;99955.28;;;37.41;30.76
43681;BME280;29281;50.356;30.894;2022-07-22T05:32:27;99948.17;;;36.50;32.05
43681;BME280;29281;50.356;30.894;2022-07-22T05:33:34;99944.90;;;35.82;32.96
43681;BME280;29281;50.356;30.894;2022-07-22T05:34:58;99938.25;;;36.34;32.41
43681;BME280;29281;50.356;30.894;2022-07-22T05:36:02;99949.52;;;36.53;32.02
43681;BME280;29281;50.356;30.894;2022-07-22T05:37:08;99941.39;;;35.04;34.17
43681;BME280;29281;50.356;30.894;2022-07-22T05:38:18;99941.48;;;35.30;33.75
43681;BME280;29281;50.356;30.894;2022-07-22T05:39:23;99936.04;;;36.36;32.64
43681;BME280;29281;50.356;30.894;2022-07-22T05:40:27;99937.70;;;35.76;33.34
43681;BME280;29281;50.356;30.894;2022-07-22T05:41:32;99943.52;;;36.05;32.64
43681;BME280;29281;50.356;30.894;2022-07-22T05:42:36;99949.57;;;35.72;33.29
43681;BME280;29281;50.356;30.894;2022-07-22T05:43:39;99939.08;;;36.19;32.91
43681;BME280;29281;50.356;30.894;2022-07-22T05:44:45;99944.45;;;36.85;32.18
43681;BME280;29281;50.356;30.894;2022-07-22T05:45:49;99953.09;;;37.77;30.96
43681;BME280;29281;50.356;30.894;2022-07-22T05:46:54;99948.27;;;36.99;31.73
43681;BME280;29281;50.356;30.894;2022-07-22T05:47:58;99950.94;;;36.40;32.18
43681;BME280;29281;50.356;30.894;2022-07-22T05:49:05;99936.31;;;36.35;32.47
43681;BME280;29281;50.356;30.894;2022-07-22T05:50:11;99942.69;;;35.79;33.06
43681;BME280;29281;50.356;30.894;2022-07-22T05:51:16;99938.49;;;36.22;32.78
43681;BME280;29281;50.356;30.894;2022-07-22T05:52:20;99942.80;;;36.84;32.38
43681;BME280;29281;50.356;30.894;2022-07-22T05:53:25;99944.65;;;37.92;30.73
43681;BME280;29281;50.356;30.894;2022-07-22T05:54:28;99960.99;;;38.28;30.06
43681;BME280;29281;50.356;30.894;2022-07-22T05:55:36;99960.89;;;38.09;30.33
43681;BME280;29281;50.356;30.894;2022-07-22T05:56:39;99959.20;;;38.13;29.83
43681;BME280;29281;50.356;30.894;2022-07-22T05:57:43;99956.43;;;38.08;29.61
43681;BME280;29281;50.356;30.894;2022-07-22T05:58:47;99953.54;;;37.89;29.57
43681;BME280;29281;50.356;30.894;2022-07-22T05:59:51;99947.56;;;36.74;31.36
43681;BME280;29281;50.356;30.894;2022-07-22T06:00:53;99943.77;;;36.09;32.07
43681;BME280;29281;50.356;30.894;2022-07-22T06:01:57;99939.07;;;36.09;32.57
43681;BME280;29281;50.356;30.894;2022-07-22T06:03:02;99942.67;;;36.25;32.62
43681;BME280;29281;50.356;30.894;2022-07-22T06:04:07;99936.86;;;36.16;32.31
43681;BME280;29281;50.356;30.894;2022-07-22T06:05:12;99946.55;;;37.19;31.23
43681;BME280;29281;50.356;30.894;2022-07-22T06:06:19;99939.05;;;36.50;31.43